createdAt,value
2018-02-16T00:01:14.791Z,90.40
2018-02-16T00:03:41.071Z,90.40
2018-02-16T00:06:07.979Z,90.30
2018-02-16T00:08:34.241Z,89.80
2018-02-16T00:11:01.148Z,90.20
2018-02-16T00:13:27.730Z,90.10
2018-02-16T00:15:53.893Z,90.40
2018-02-16T00:18:20.481Z,90.30
2018-02-16T00:20:46.626Z,90.20
2018-02-16T00:23:13.552Z,90.10
2018-02-16T00:25:39.741Z,90.00
2018-02-16T00:28:05.919Z,90.40
2018-02-16T00:30:32.140Z,90.40
2018-02-16T00:32:59.074Z,90.80
2018-02-16T00:35:25.287Z,90.50
2018-02-16T00:37:51.476Z,90.60
2018-02-16T00:40:17.684Z,90.50
2018-02-16T00:42:44.620Z,90.40
2018-02-16T00:45:11.273Z,89.70
2018-02-16T00:47:37.428Z,89.90
2018-02-16T00:50:04.007Z,90.00
2018-02-16T00:52:30.574Z,90.40
2018-02-16T00:54:56.771Z,90.40
2018-02-16T00:57:23.709Z,90.80
2018-02-16T00:59:50.343Z,90.40
2018-02-16T01:02:16.536Z,90.40
2018-02-16T01:04:42.721Z,90.70
2018-02-16T01:07:09.674Z,91.10
2018-02-16T01:09:36.210Z,91.00
2018-02-16T01:12:03.219Z,91.30
2018-02-16T01:14:29.468Z,90.90
2018-02-16T01:16:57.141Z,91.20
2018-02-16T01:19:23.310Z,90.70
2018-02-16T01:21:49.906Z,90.40
2018-02-16T01:24:16.083Z,90.30
2018-02-16T01:26:42.257Z,90.40
2018-02-16T01:29:08.483Z,90.40
2018-02-16T01:31:35.031Z,90.40
2018-02-16T01:34:01.979Z,90.50
2018-02-16T01:36:28.887Z,90.70
2018-02-16T01:38:55.132Z,90.90
2018-02-16T01:41:21.316Z,91.10
2018-02-16T01:43:47.482Z,91.30
2018-02-16T01:46:13.709Z,91.20
2018-02-16T01:48:40.247Z,90.90
2018-02-16T01:51:06.486Z,90.40
2018-02-16T01:53:33.447Z,90.40
2018-02-16T01:56:00.613Z,90.40
2018-02-16T01:58:27.645Z,90.70
2018-02-16T02:00:53.846Z,90.40
2018-02-16T02:03:20.058Z,90.50
2018-02-16T02:05:46.233Z,90.30
2018-02-16T02:08:13.204Z,91.00
2018-02-16T02:10:39.441Z,90.40
2018-02-16T02:13:05.629Z,90.60
2018-02-16T02:15:31.883Z,90.60
2018-02-16T02:17:58.819Z,91.00
2018-02-16T02:20:25.417Z,90.40
2018-02-16T02:22:51.617Z,90.50
2018-02-16T02:25:17.814Z,90.50
2018-02-16T02:27:44.788Z,90.50
2018-02-16T02:30:11.352Z,89.90
2018-02-16T02:32:37.541Z,90.20
2018-02-16T02:35:03.748Z,90.20
2018-02-16T02:37:30.671Z,90.50
2018-02-16T02:39:56.833Z,90.30
2018-02-16T02:42:22.995Z,90.00
2018-02-16T02:44:49.933Z,90.00
2018-02-16T02:47:16.105Z,90.00
2018-02-16T02:49:42.290Z,89.90
2018-02-16T02:52:08.455Z,90.20
2018-02-16T02:54:34.980Z,90.50
2018-02-16T02:57:01.211Z,90.40
2018-02-16T02:59:27.419Z,90.40
2018-02-16T03:01:53.590Z,90.40
2018-02-16T03:04:20.189Z,90.40
2018-02-16T03:06:46.360Z,90.40
2018-02-16T03:09:14.052Z,90.40
2018-02-16T03:11:40.233Z,90.60
2018-02-16T03:14:06.413Z,90.60
2018-02-16T03:16:32.617Z,90.40
2018-02-16T03:18:59.598Z,90.60
2018-02-16T03:21:26.182Z,90.10
2018-02-16T03:23:52.391Z,90.00
2018-02-16T03:26:18.574Z,90.20
2018-02-16T03:28:44.762Z,90.30
2018-02-16T03:31:10.929Z,90.30
2018-02-16T03:33:37.139Z,90.30
2018-02-16T03:36:04.070Z,90.20
2018-02-16T03:38:30.269Z,89.80
2018-02-16T03:40:56.466Z,89.70
2018-02-16T03:43:22.691Z,90.10
2018-02-16T03:45:49.229Z,88.30
2018-02-16T03:48:15.789Z,89.90
2018-02-16T03:50:41.969Z,90.30
2018-02-16T03:53:08.879Z,90.80
2018-02-16T03:55:35.092Z,90.60
2018-02-16T03:58:01.299Z,90.70
2018-02-16T04:00:27.504Z,90.70
2018-02-16T04:02:54.469Z,90.30
2018-02-16T04:05:20.669Z,90.20
2018-02-16T04:07:46.849Z,89.80
2018-02-16T04:10:13.040Z,90.00
2018-02-16T04:12:39.966Z,90.50
2018-02-16T04:15:06.131Z,90.20
2018-02-16T04:17:32.291Z,90.20
2018-02-16T04:19:58.904Z,90.20
2018-02-16T04:22:25.053Z,90.50
2018-02-16T04:24:51.281Z,90.70
2018-02-16T04:27:17.458Z,90.70
2018-02-16T04:29:44.390Z,90.80
2018-02-16T04:32:10.940Z,90.70
2018-02-16T04:34:37.906Z,90.40
2018-02-16T04:37:04.485Z,90.10
2018-02-16T04:39:31.045Z,90.10
2018-02-16T04:41:57.610Z,89.80
2018-02-16T04:44:24.530Z,90.20
2018-02-16T04:46:51.529Z,90.00
2018-02-16T04:49:17.683Z,90.10
2018-02-16T04:51:44.266Z,90.10
2018-02-16T04:54:11.165Z,90.60
2018-02-16T04:56:37.341Z,90.50
2018-02-16T04:59:04.278Z,90.40
2018-02-16T05:01:30.841Z,90.10
2018-02-16T05:03:57.039Z,90.20
2018-02-16T05:06:23.953Z,90.20
2018-02-16T05:08:50.171Z,89.30
2018-02-16T05:11:16.331Z,90.00
2018-02-16T05:13:42.517Z,90.10
2018-02-16T05:16:08.686Z,90.00
2018-02-16T05:18:35.676Z,90.00
2018-02-16T05:21:01.815Z,90.00
2018-02-16T05:23:28.012Z,90.00
2018-02-16T05:25:54.230Z,90.10
2018-02-16T05:28:21.922Z,90.00
2018-02-16T05:30:48.168Z,90.00
2018-02-16T05:33:14.400Z,90.10
2018-02-16T05:35:40.620Z,90.40
2018-02-16T05:38:06.804Z,90.40
2018-02-16T05:40:33.389Z,90.20
2018-02-16T05:42:59.583Z,90.00
2018-02-16T05:45:26.522Z,90.20
2018-02-16T05:47:53.432Z,90.30
2018-02-16T05:50:19.654Z,90.00
2018-02-16T05:52:45.856Z,89.90
2018-02-16T05:55:12.055Z,90.00
2018-02-16T05:57:38.973Z,90.30
2018-02-16T06:00:05.262Z,90.30
2018-02-16T06:02:31.457Z,90.40
2018-02-16T06:04:58.393Z,90.20
2018-02-16T06:07:25.346Z,90.30
2018-02-16T06:10:07.182Z,90.00
2018-02-16T06:12:33.378Z,90.00
2018-02-16T06:15:00.318Z,90.10
2018-02-16T06:17:26.662Z,89.30
2018-02-16T06:19:52.845Z,89.90
2018-02-16T06:22:19.871Z,90.10
2018-02-16T06:24:46.043Z,89.80
2018-02-16T06:27:12.221Z,89.80
2018-02-16T06:29:38.476Z,89.90
2018-02-16T06:32:04.676Z,90.00
2018-02-16T06:34:30.899Z,89.90
2018-02-16T06:36:57.064Z,89.90
2018-02-16T06:39:23.675Z,89.10
2018-02-16T06:41:49.841Z,88.70
2018-02-16T06:44:16.106Z,88.70
2018-02-16T06:46:42.298Z,88.70
2018-02-16T06:49:08.470Z,88.80
2018-02-16T06:51:34.671Z,88.30
2018-02-16T06:54:01.245Z,88.60
2018-02-16T06:56:27.460Z,89.60
2018-02-16T06:58:53.652Z,90.00
2018-02-16T07:01:20.252Z,89.70
2018-02-16T07:03:46.415Z,89.30
2018-02-16T07:06:12.613Z,89.60
2018-02-16T07:08:39.216Z,89.60
2018-02-16T07:11:05.451Z,89.40
2018-02-16T07:13:31.622Z,89.20
2018-02-16T07:15:57.851Z,88.90
2018-02-16T07:18:24.074Z,88.00
2018-02-16T07:20:50.291Z,89.30
2018-02-16T07:23:16.567Z,89.30
2018-02-16T07:25:43.519Z,89.30
2018-02-16T07:28:10.414Z,89.10
2018-02-16T07:30:36.631Z,90.10
2018-02-16T07:33:02.878Z,89.70
2018-02-16T07:35:29.125Z,90.20
2018-02-16T07:37:55.324Z,90.10
2018-02-16T07:40:21.515Z,90.60
2018-02-16T07:42:47.742Z,90.30
2018-02-16T07:45:14.714Z,90.50
2018-02-16T07:47:40.969Z,90.20
2018-02-16T07:50:07.242Z,90.00
2018-02-16T07:52:33.815Z,90.00
2018-02-16T07:54:59.994Z,89.50
2018-02-16T07:57:27.191Z,88.80
2018-02-16T07:59:54.336Z,88.50
2018-02-16T08:02:20.565Z,88.10
2018-02-16T08:04:46.758Z,87.60
2018-02-16T08:07:13.711Z,88.20
2018-02-16T08:09:40.639Z,88.50
2018-02-16T08:12:07.597Z,88.10
2018-02-16T08:14:34.197Z,86.60
2018-02-16T08:17:00.355Z,86.10
2018-02-16T08:19:27.272Z,86.20
2018-02-16T08:21:53.470Z,85.90
2018-02-16T08:24:34.981Z,85.30
2018-02-16T08:27:01.258Z,84.30
2018-02-16T08:29:28.199Z,83.00
2018-02-16T08:31:54.352Z,81.20
2018-02-16T08:34:20.525Z,79.90
2018-02-16T08:36:46.711Z,79.10
2018-02-16T08:39:12.873Z,77.90
2018-02-16T08:41:39.025Z,78.00
2018-02-16T08:44:05.164Z,78.10
2018-02-16T08:46:31.391Z,78.30
2018-02-16T08:48:57.601Z,77.10
2018-02-16T08:51:23.814Z,76.50
2018-02-16T08:53:49.990Z,76.60
2018-02-16T08:56:16.214Z,75.60
2018-02-16T08:58:43.134Z,75.50
2018-02-16T09:01:09.319Z,75.30
2018-02-16T09:03:35.491Z,75.50
2018-02-16T09:06:01.709Z,73.90
2018-02-16T09:08:27.892Z,74.30
2018-02-16T09:10:54.114Z,72.10
2018-02-16T09:13:21.146Z,72.00
2018-02-16T09:15:48.137Z,72.00
2018-02-16T09:18:14.338Z,71.80
2018-02-16T09:20:41.283Z,71.80
2018-02-16T09:23:08.217Z,72.90
2018-02-16T09:25:35.178Z,73.20
2018-02-16T09:28:01.331Z,72.20
2018-02-16T09:30:27.549Z,73.30
2018-02-16T09:32:53.971Z,75.60
2018-02-16T09:35:20.308Z,75.30
2018-02-16T09:37:47.815Z,74.30
2018-02-16T09:40:15.854Z,74.70
2018-02-16T09:42:42.110Z,75.10
2018-02-16T09:45:08.330Z,72.40
2018-02-16T09:47:34.505Z,71.60
2018-02-16T09:50:01.487Z,73.30
2018-02-16T09:52:27.634Z,73.50
2018-02-16T09:54:53.882Z,74.50
2018-02-16T09:57:20.090Z,74.00
2018-02-16T09:59:46.257Z,74.00
2018-02-16T10:02:13.191Z,74.20
2018-02-16T10:04:39.398Z,73.70
2018-02-16T10:07:05.692Z,72.50
2018-02-16T10:09:31.909Z,71.30
2018-02-16T10:11:58.845Z,70.90
2018-02-16T10:14:25.781Z,67.80
2018-02-16T10:16:52.740Z,67.80
2018-02-16T10:19:19.669Z,65.40
2018-02-16T10:21:46.688Z,65.10
2018-02-16T10:24:12.920Z,63.90
2018-02-16T10:26:39.486Z,64.60
2018-02-16T10:29:06.469Z,63.70
2018-02-16T10:31:32.682Z,62.30
2018-02-16T10:33:58.913Z,62.20
2018-02-16T10:36:25.137Z,62.30
2018-02-16T10:38:52.046Z,63.50
2018-02-16T10:41:18.613Z,61.00
2018-02-16T10:43:45.532Z,60.20
2018-02-16T10:46:12.504Z,61.20
2018-02-16T10:48:39.052Z,58.60
2018-02-16T10:51:05.243Z,58.50
2018-02-16T10:53:32.985Z,58.60
2018-02-16T10:55:59.215Z,58.30
2018-02-16T10:58:25.398Z,58.40
2018-02-16T11:00:58.097Z,56.50
2018-02-16T11:03:30.488Z,76.90
2018-02-16T11:05:56.673Z,65.30
2018-02-16T11:11:24.760Z,73.10
2018-02-16T11:13:51.717Z,54.90
2018-02-16T11:16:18.644Z,54.10
2018-02-16T11:18:45.567Z,53.90
2018-02-16T11:21:12.159Z,53.70
2018-02-16T11:23:39.086Z,52.50
2018-02-16T11:26:06.028Z,53.20
2018-02-16T11:28:32.973Z,53.70
2018-02-16T11:30:59.894Z,53.40
2018-02-16T11:33:26.142Z,60.50
2018-02-16T11:35:53.364Z,54.50
2018-02-16T11:38:19.914Z,54.00
2018-02-16T11:40:46.812Z,51.20
2018-02-16T11:43:13.754Z,49.00
2018-02-16T11:45:40.659Z,48.80
2018-02-16T11:48:07.642Z,49.40
2018-02-16T11:50:34.616Z,49.50
2018-02-16T11:53:16.088Z,46.50
2018-02-16T11:55:42.977Z,47.00
2018-02-16T11:58:09.224Z,61.00
2018-02-16T12:00:36.350Z,45.60
2018-02-16T12:03:03.172Z,45.90
2018-02-16T12:05:29.397Z,51.90
2018-02-16T12:07:56.295Z,44.80
2018-02-16T12:10:23.348Z,46.70
2018-02-16T12:12:50.643Z,45.30
2018-02-16T12:15:17.941Z,46.20
2018-02-16T12:17:44.500Z,51.90
2018-02-16T12:20:11.725Z,45.40
2018-02-16T12:22:38.660Z,46.80
2018-02-16T12:25:04.862Z,67.10
2018-02-16T12:27:31.450Z,59.20
2018-02-16T12:29:58.359Z,46.40
2018-02-16T12:34:52.880Z,47.40
2018-02-16T12:37:19.102Z,49.20
2018-02-16T12:39:45.331Z,54.40
2018-02-16T12:42:12.286Z,45.80
2018-02-16T12:44:39.111Z,59.10
2018-02-16T12:47:06.022Z,45.30
2018-02-16T12:49:32.201Z,55.30
2018-02-16T12:51:58.407Z,59.70
2018-02-16T12:54:24.551Z,52.20
2018-02-16T12:59:19.300Z,60.80
2018-02-16T13:04:14.145Z,38.90
2018-02-16T13:06:40.380Z,50.10
2018-02-16T13:09:06.550Z,50.90
2018-02-16T13:11:33.484Z,38.50
2018-02-16T13:13:59.692Z,50.20
2018-02-16T13:16:25.894Z,44.80
2018-02-16T13:18:52.083Z,53.50
2018-02-16T13:21:18.651Z,37.40
2018-02-16T13:23:45.960Z,38.30
2018-02-16T13:26:12.134Z,52.50
2018-02-16T13:28:38.293Z,51.50
2018-02-16T13:31:04.523Z,57.30
2018-02-16T13:33:31.128Z,44.60
2018-02-16T13:35:57.299Z,51.50
2018-02-16T13:38:23.524Z,50.50
2018-02-16T13:40:50.501Z,42.30
2018-02-16T13:43:16.725Z,42.00
2018-02-16T13:45:44.406Z,42.20
2018-02-16T13:48:11.362Z,43.60
2018-02-16T13:50:38.330Z,45.30
2018-02-16T13:53:04.573Z,48.50
2018-02-16T13:55:30.782Z,48.50
2018-02-16T13:57:56.987Z,49.00
2018-02-16T14:00:23.908Z,42.80
2018-02-16T14:03:05.921Z,42.50
2018-02-16T14:05:32.915Z,41.90
2018-02-16T14:07:59.481Z,43.20
2018-02-16T14:10:25.671Z,44.40
2018-02-16T14:12:51.904Z,43.20
2018-02-16T14:15:19.599Z,44.50
2018-02-16T14:17:46.568Z,45.00
2018-02-16T14:20:13.242Z,45.10
2018-02-16T14:22:39.741Z,51.50
2018-02-16T14:25:06.738Z,43.90
2018-02-16T14:27:33.419Z,43.60
2018-02-16T14:29:59.611Z,52.90
2018-02-16T14:32:26.228Z,43.60
2018-02-16T14:34:52.511Z,52.60
2018-02-16T14:37:18.831Z,47.70
2018-02-16T14:39:44.962Z,43.20
2018-02-16T14:42:11.171Z,50.40
2018-02-16T14:44:37.387Z,46.60
2018-02-16T14:47:03.594Z,51.30
2018-02-16T14:49:30.153Z,40.10
2018-02-16T14:51:57.091Z,39.10
2018-02-16T14:54:23.665Z,38.90
2018-02-16T14:56:49.859Z,44.60
2018-02-16T14:59:16.881Z,37.60
2018-02-16T15:01:43.814Z,37.60
2018-02-16T15:04:10.871Z,37.20
2018-02-16T15:06:37.550Z,36.50
2018-02-16T15:09:04.507Z,37.20
2018-02-16T15:11:30.760Z,41.20
2018-02-16T15:13:56.960Z,39.50
2018-02-16T15:16:23.176Z,46.10
2018-02-16T15:18:49.414Z,46.30
2018-02-16T15:21:15.632Z,40.40
2018-02-16T15:23:41.970Z,48.50
2018-02-16T15:26:08.163Z,49.30
2018-02-16T15:33:31.038Z,44.30
2018-02-16T15:35:58.408Z,44.60
2018-02-16T15:38:26.047Z,46.40
2018-02-16T15:43:20.560Z,50.30
2018-02-16T15:45:48.233Z,48.80
2018-02-16T15:48:16.155Z,47.70
2018-02-16T15:50:43.353Z,49.00
2018-02-16T15:53:24.910Z,49.20
2018-02-16T15:55:51.465Z,49.90
2018-02-16T15:58:17.658Z,60.10
2018-02-16T16:00:43.841Z,74.30
2018-02-16T16:03:10.867Z,54.30
2018-02-16T16:05:56.401Z,54.00
2018-02-16T16:08:23.308Z,54.20
2018-02-16T16:10:50.262Z,54.80
2018-02-16T16:13:16.469Z,72.70
2018-02-16T16:15:43.056Z,54.80
2018-02-16T16:18:09.727Z,56.20
2018-02-16T16:20:36.287Z,55.20
2018-02-16T16:23:03.997Z,55.40
2018-02-16T16:25:30.169Z,75.90
2018-02-16T16:27:56.446Z,75.30
2018-02-16T16:30:24.132Z,56.00
2018-02-16T16:32:50.330Z,64.00
2018-02-16T16:35:18.044Z,56.70
2018-02-16T16:37:44.256Z,75.60
2018-02-16T16:40:11.232Z,56.70
2018-02-16T16:45:05.374Z,75.40
2018-02-16T16:47:31.600Z,72.00
2018-02-16T16:52:27.768Z,58.10
2018-02-16T16:54:54.483Z,57.60
2018-02-16T16:57:22.190Z,61.30
2018-02-16T16:59:48.477Z,67.60
2018-02-16T17:02:14.713Z,71.90
2018-02-16T17:04:40.934Z,62.50
2018-02-16T17:07:07.524Z,60.00
2018-02-16T17:09:35.226Z,60.70
2018-02-16T17:12:02.148Z,60.60
2018-02-16T17:14:28.380Z,63.90
2018-02-16T17:16:55.330Z,61.30
2018-02-16T17:19:22.249Z,61.20
2018-02-16T17:21:50.145Z,62.30
2018-02-16T17:24:17.134Z,61.20
2018-02-16T17:26:44.060Z,61.60
2018-02-16T17:29:10.295Z,62.30
2018-02-16T17:35:06.878Z,63.20
2018-02-16T17:37:33.854Z,63.20
2018-02-16T17:40:00.050Z,63.70
2018-02-16T17:42:27.057Z,63.60
2018-02-16T17:44:53.266Z,64.30
2018-02-16T17:47:20.206Z,64.50
2018-02-16T17:49:47.232Z,65.30
2018-02-16T17:52:13.849Z,64.30
2018-02-16T17:54:40.057Z,64.40
2018-02-16T17:57:06.369Z,64.40
2018-02-16T17:59:33.022Z,64.30
2018-02-16T18:01:59.350Z,64.30
2018-02-16T18:04:27.212Z,64.40
2018-02-16T18:06:54.159Z,64.90
2018-02-16T18:09:21.956Z,64.00
2018-02-16T18:11:48.208Z,64.20
2018-02-16T18:14:14.414Z,64.50
2018-02-16T18:16:40.594Z,64.60
2018-02-16T18:19:06.794Z,65.10
2018-02-16T18:21:33.334Z,65.40
2018-02-16T18:23:59.487Z,65.60
2018-02-16T18:26:26.444Z,65.40
2018-02-16T18:28:53.397Z,65.90
2018-02-16T18:31:20.988Z,65.10
2018-02-16T18:33:47.190Z,65.50
2018-02-16T18:36:14.095Z,65.80
2018-02-16T18:38:40.274Z,65.70
2018-02-16T18:41:06.825Z,66.40
2018-02-16T18:43:33.032Z,66.80
2018-02-16T18:45:59.254Z,66.90
2018-02-16T18:48:26.214Z,67.60
2018-02-16T18:50:52.461Z,67.10
2018-02-16T18:53:18.708Z,67.10
2018-02-16T18:55:44.929Z,67.20
2018-02-16T18:58:11.176Z,67.10
2018-02-16T19:00:37.411Z,67.10
2018-02-16T19:03:03.646Z,67.50
2018-02-16T19:05:29.821Z,67.60
2018-02-16T19:07:56.769Z,67.40
2018-02-16T19:10:22.989Z,67.40
2018-02-16T19:12:49.224Z,68.00
2018-02-16T19:15:15.524Z,68.00
2018-02-16T19:17:42.519Z,68.10
2018-02-16T19:20:08.742Z,67.40
2018-02-16T19:22:35.000Z,67.30
2018-02-16T19:25:01.211Z,67.30
2018-02-16T19:27:27.441Z,67.60
2018-02-16T19:29:53.673Z,68.20
2018-02-16T19:32:19.910Z,70.00
2018-02-16T19:34:46.473Z,71.80
2018-02-16T19:37:12.643Z,69.60
2018-02-16T19:39:38.838Z,69.40
2018-02-16T19:42:05.802Z,70.00
2018-02-16T19:44:32.769Z,70.00
2018-02-16T19:46:58.974Z,69.50
2018-02-16T19:49:25.186Z,69.10
2018-02-16T19:51:51.812Z,68.70
2018-02-16T19:54:18.486Z,69.00
2018-02-16T19:56:45.410Z,70.00
2018-02-16T19:59:11.643Z,70.10
2018-02-16T20:01:38.634Z,70.60
2018-02-16T20:04:04.806Z,69.30
2018-02-16T20:06:31.002Z,69.30
2018-02-16T20:08:57.205Z,69.30
2018-02-16T20:11:23.468Z,69.90
2018-02-16T20:13:49.704Z,69.70
2018-02-16T20:16:15.937Z,69.30
2018-02-16T20:18:42.176Z,69.30
2018-02-16T20:21:08.380Z,70.00
2018-02-16T20:23:34.617Z,70.40
2018-02-16T20:26:00.853Z,71.10
2018-02-16T20:28:27.002Z,71.10
2018-02-16T20:30:53.995Z,71.30
2018-02-16T20:33:20.235Z,71.00
2018-02-16T20:35:46.481Z,71.20
2018-02-16T20:38:12.702Z,71.60
2018-02-16T20:40:38.900Z,71.50
2018-02-16T20:43:05.116Z,71.30
2018-02-16T20:45:32.149Z,71.10
2018-02-16T20:47:59.215Z,71.70
2018-02-16T20:50:26.384Z,71.30
2018-02-16T20:52:52.624Z,71.30
2018-02-16T20:55:18.885Z,70.40
2018-02-16T20:57:45.206Z,70.50
2018-02-16T21:00:11.878Z,71.20
2018-02-16T21:02:38.832Z,71.30
2018-02-16T21:05:05.778Z,70.80
2018-02-16T21:07:32.856Z,70.50
2018-02-16T21:09:59.093Z,70.00
2018-02-16T21:12:25.322Z,70.50
2018-02-16T21:14:51.618Z,70.50
2018-02-16T21:17:18.604Z,70.80
2018-02-16T21:19:44.815Z,70.40
2018-02-16T21:22:11.063Z,70.50
2018-02-16T21:24:37.321Z,71.00
2018-02-16T21:27:03.585Z,70.80
2018-02-16T21:29:30.914Z,72.50
2018-02-16T21:31:57.825Z,72.20
2018-02-16T21:34:24.068Z,71.30
2018-02-16T21:36:50.272Z,71.10
2018-02-16T21:39:16.830Z,71.00
2018-02-16T21:41:43.100Z,71.00
2018-02-16T21:44:10.093Z,71.80
2018-02-16T21:46:36.342Z,72.10
2018-02-16T21:49:02.602Z,71.90
2018-02-16T21:51:29.603Z,72.20
2018-02-16T21:53:55.869Z,71.30
2018-02-16T21:56:22.479Z,70.80
2018-02-16T21:58:48.707Z,71.40
2018-02-16T22:01:14.917Z,70.80
2018-02-16T22:03:41.175Z,70.70
2018-02-16T22:06:07.462Z,70.60
2018-02-16T22:08:33.761Z,70.50
2018-02-16T22:11:00.052Z,70.90
2018-02-16T22:13:26.293Z,70.80
2018-02-16T22:15:52.531Z,71.10
2018-02-16T22:18:18.754Z,71.20
2018-02-16T22:20:44.951Z,71.10
2018-02-16T22:23:11.414Z,71.80
2018-02-16T22:25:52.562Z,72.20
2018-02-16T22:28:18.849Z,72.30
2018-02-16T22:30:45.805Z,72.20
2018-02-16T22:33:12.428Z,71.40
2018-02-16T22:35:39.432Z,71.80
2018-02-16T22:38:05.725Z,71.80
2018-02-16T22:40:32.748Z,71.80
2018-02-16T22:42:59.866Z,71.30
2018-02-16T22:45:26.139Z,71.50
2018-02-16T22:47:52.535Z,71.80
2018-02-16T22:50:18.742Z,72.50
2018-02-16T22:52:44.964Z,72.20
2018-02-16T22:55:11.362Z,73.40
2018-02-16T22:57:38.406Z,73.50
2018-02-16T23:00:04.664Z,73.10
2018-02-16T23:02:32.388Z,72.70
2018-02-16T23:04:58.630Z,73.20
2018-02-16T23:07:24.881Z,73.30
2018-02-16T23:09:51.084Z,73.90
2018-02-16T23:12:17.320Z,73.90
2018-02-16T23:14:44.275Z,73.90
2018-02-16T23:17:11.225Z,74.70
2018-02-16T23:19:38.168Z,74.80
2018-02-16T23:22:05.106Z,75.30
2018-02-16T23:24:32.068Z,75.80
2018-02-16T23:26:59.025Z,75.20
2018-02-16T23:29:25.223Z,75.10
2018-02-16T23:31:51.392Z,75.00
2018-02-16T23:34:17.659Z,75.50
2018-02-16T23:36:44.247Z,75.30
2018-02-16T23:39:10.415Z,75.80
2018-02-16T23:41:36.622Z,75.30
2018-02-16T23:44:02.792Z,75.90
2018-02-16T23:46:29.002Z,75.90
2018-02-16T23:48:55.202Z,75.60
2018-02-16T23:51:21.399Z,75.90
2018-02-16T23:53:47.606Z,75.50
2018-02-16T23:56:13.775Z,76.20
2018-02-16T23:58:39.973Z,76.50
